createdAt,value
2019-04-11T00:00:31.384Z,3.60
2019-04-11T00:01:36.788Z,3.60
2019-04-11T00:02:33.059Z,3.63
2019-04-11T00:03:31.355Z,3.60
2019-04-11T00:04:32.303Z,3.70
2019-04-11T00:05:31.273Z,3.62
2019-04-11T00:06:31.806Z,3.62
2019-04-11T00:07:32.092Z,3.65
2019-04-11T00:08:32.181Z,3.58
2019-04-11T00:09:32.494Z,3.58
2019-04-11T00:10:31.343Z,3.44
2019-04-11T00:11:31.206Z,3.53
2019-04-11T00:12:31.188Z,3.40
2019-04-11T00:13:33.432Z,3.37
2019-04-11T00:14:31.719Z,3.41
2019-04-11T00:15:31.155Z,3.37
2019-04-11T00:16:31.146Z,3.42
2019-04-11T00:17:32.130Z,3.31
2019-04-11T00:18:31.148Z,3.25
2019-04-11T00:19:31.562Z,3.36
2019-04-11T00:20:31.878Z,3.25
2019-04-11T00:21:31.100Z,3.21
2019-04-11T00:22:31.084Z,3.23
2019-04-11T00:23:32.298Z,3.25
2019-04-11T00:24:31.383Z,3.21
2019-04-11T00:25:31.668Z,3.23
2019-04-11T00:26:31.044Z,3.14
2019-04-11T00:27:31.028Z,3.08
2019-04-11T00:28:31.973Z,3.14
2019-04-11T00:29:31.285Z,3.11
2019-04-11T00:30:30.992Z,2.98
2019-04-11T00:31:30.991Z,3.00
2019-04-11T00:32:31.646Z,3.08
2019-04-11T00:33:31.953Z,3.08
2019-04-11T00:34:31.110Z,3.00
2019-04-11T00:35:31.447Z,2.98
2019-04-11T00:36:30.928Z,2.97
2019-04-11T00:37:30.930Z,3.01
2019-04-11T00:38:32.008Z,2.98
2019-04-11T00:39:31.869Z,3.00
2019-04-11T00:40:30.891Z,2.95
2019-04-11T00:41:31.326Z,3.03
2019-04-11T00:42:30.866Z,2.92
2019-04-11T00:43:36.944Z,2.93
2019-04-11T00:44:32.758Z,2.97
2019-04-11T00:45:31.795Z,2.83
2019-04-11T00:46:32.001Z,2.82
2019-04-11T00:47:31.178Z,2.85
2019-04-11T00:48:30.803Z,2.83
2019-04-11T00:49:30.808Z,2.86
2019-04-11T00:50:31.603Z,2.87
2019-04-11T00:51:31.695Z,2.85
2019-04-11T00:52:31.476Z,2.83
2019-04-11T00:53:30.968Z,2.86
2019-04-11T00:54:31.067Z,2.77
2019-04-11T00:55:31.482Z,2.86
2019-04-11T00:56:30.708Z,2.86
2019-04-11T00:57:30.767Z,2.92
2019-04-11T00:58:31.800Z,2.80
2019-04-11T00:59:30.671Z,2.82
2019-04-11T01:00:31.283Z,2.79
2019-04-11T01:01:31.619Z,2.72
2019-04-11T01:02:31.548Z,2.71
2019-04-11T01:03:30.660Z,2.67
2019-04-11T01:04:30.676Z,2.62
2019-04-11T01:05:31.723Z,2.69
2019-04-11T01:06:30.598Z,2.69
2019-04-11T01:07:31.134Z,2.62
2019-04-11T01:08:31.477Z,2.68
2019-04-11T01:09:30.668Z,2.65
2019-04-11T01:10:30.562Z,2.57
2019-04-11T01:11:30.550Z,2.51
2019-04-11T01:12:30.556Z,2.53
2019-04-11T01:13:41.468Z,2.56
2019-04-11T01:14:32.058Z,2.47
2019-04-11T01:15:31.379Z,2.49
2019-04-11T01:16:30.521Z,2.50
2019-04-11T01:17:31.519Z,2.47
2019-04-11T01:18:30.469Z,2.36
2019-04-11T01:19:30.962Z,2.33
2019-04-11T01:20:31.414Z,2.43
2019-04-11T01:21:30.654Z,2.35
2019-04-11T01:22:30.422Z,2.42
2019-04-11T01:23:31.105Z,2.36
2019-04-11T01:24:31.438Z,2.39
2019-04-11T01:25:30.679Z,2.42
2019-04-11T01:26:30.383Z,2.44
2019-04-11T01:27:30.373Z,2.38
2019-04-11T01:28:31.015Z,2.32
2019-04-11T01:29:31.333Z,2.33
2019-04-11T01:30:31.708Z,2.29
2019-04-11T01:31:30.496Z,2.29
2019-04-11T01:32:30.587Z,2.32
2019-04-11T01:33:30.307Z,2.28
2019-04-11T01:34:30.778Z,2.32
2019-04-11T01:35:31.087Z,2.33
2019-04-11T01:36:31.131Z,2.31
2019-04-11T01:37:31.394Z,2.29
2019-04-11T01:38:30.505Z,2.33
2019-04-11T01:39:30.282Z,2.31
2019-04-11T01:40:30.236Z,2.32
2019-04-11T01:41:30.905Z,2.32
2019-04-11T01:42:31.209Z,2.32
2019-04-11T01:43:30.728Z,2.33
2019-04-11T01:44:30.433Z,2.28
2019-04-11T01:45:30.179Z,2.35
2019-04-11T01:46:30.158Z,2.33
2019-04-11T01:47:30.915Z,2.33
2019-04-11T01:48:31.168Z,2.33
2019-04-11T01:49:30.370Z,2.29
2019-04-11T01:50:30.128Z,2.35
2019-04-11T01:51:30.103Z,2.35
2019-04-11T01:52:30.646Z,2.31
2019-04-11T01:53:31.038Z,2.32
2019-04-11T01:54:30.104Z,2.32
2019-04-11T01:55:30.064Z,2.33
2019-04-11T01:56:30.067Z,2.35
2019-04-11T01:57:30.038Z,2.36
2019-04-11T01:58:30.932Z,2.36
2019-04-11T01:59:31.178Z,2.29
2019-04-11T02:00:30.200Z,2.29
2019-04-11T02:01:30.605Z,2.33
2019-04-11T02:02:30.637Z,2.33
2019-04-11T02:03:30.852Z,2.35
2019-04-11T02:04:30.108Z,2.31
2019-04-11T02:05:29.950Z,2.29
2019-04-11T02:06:29.950Z,2.31
2019-04-11T02:07:30.949Z,2.31
2019-04-11T02:08:29.915Z,2.26
2019-04-11T02:09:30.406Z,2.29
2019-04-11T02:10:29.896Z,2.32
2019-04-11T02:11:29.909Z,2.26
2019-04-11T02:12:30.983Z,2.28
2019-04-11T02:13:30.069Z,2.33
2019-04-11T02:14:29.859Z,2.32
2019-04-11T02:15:30.426Z,2.26
2019-04-11T02:16:29.827Z,2.29
2019-04-11T02:17:30.719Z,2.28
2019-04-11T02:18:29.814Z,2.18
2019-04-11T02:19:29.801Z,2.18
2019-04-11T02:20:29.788Z,2.15
2019-04-11T02:21:29.782Z,2.25
2019-04-11T02:22:30.545Z,2.20
2019-04-11T02:23:30.855Z,2.15
2019-04-11T02:24:30.032Z,2.18
2019-04-11T02:25:30.383Z,2.20
2019-04-11T02:26:29.719Z,2.18
2019-04-11T02:27:30.765Z,2.26
2019-04-11T02:28:30.828Z,2.20
2019-04-11T02:29:29.857Z,2.22
2019-04-11T02:30:30.535Z,2.18
2019-04-11T02:31:30.571Z,2.13
2019-04-11T02:32:29.706Z,2.14
2019-04-11T02:33:30.636Z,2.20
2019-04-11T02:34:29.828Z,2.26
2019-04-11T02:35:31.104Z,2.22
2019-04-11T02:36:31.392Z,2.18
2019-04-11T02:37:31.526Z,2.07
2019-04-11T02:38:30.507Z,2.20
2019-04-11T02:39:32.908Z,2.00
2019-04-11T02:40:30.554Z,2.22
2019-04-11T02:41:30.295Z,2.18
2019-04-11T02:42:30.686Z,2.13
2019-04-11T02:43:29.680Z,2.22
2019-04-11T02:44:45.763Z,2.08
2019-04-11T02:45:42.664Z,2.11
2019-04-11T02:46:40.875Z,2.20
2019-04-11T02:47:32.869Z,2.14
2019-04-11T02:48:31.069Z,2.18
2019-04-11T02:49:31.127Z,2.22
2019-04-11T02:50:29.961Z,2.17
2019-04-11T02:51:31.032Z,2.04
2019-04-11T02:52:29.436Z,2.00
2019-04-11T02:53:30.701Z,2.06
2019-04-11T02:54:30.651Z,2.07
2019-04-11T02:55:29.574Z,2.06
2019-04-11T02:56:31.088Z,2.06
2019-04-11T02:57:30.058Z,2.02
2019-04-11T02:58:30.037Z,2.06
2019-04-11T02:59:30.309Z,2.00
2019-04-11T03:00:30.999Z,1.99
2019-04-11T03:01:29.337Z,1.92
2019-04-11T03:02:30.806Z,1.88
2019-04-11T03:03:29.861Z,1.84
2019-04-11T03:04:30.841Z,1.80
2019-04-11T03:05:30.917Z,1.80
2019-04-11T03:06:30.846Z,1.80
2019-04-11T03:07:30.014Z,1.70
2019-04-11T03:08:31.749Z,1.77
2019-04-11T03:09:29.681Z,1.80
2019-04-11T03:10:31.283Z,1.76
2019-04-11T03:11:30.329Z,1.73
2019-04-11T03:12:29.793Z,1.70
2019-04-11T03:13:29.556Z,1.68
2019-04-11T03:14:44.724Z,1.67
2019-04-11T03:15:44.641Z,1.68
2019-04-11T03:16:42.857Z,1.73
2019-04-11T03:17:35.851Z,1.66
2019-04-11T03:18:46.152Z,1.62
2019-04-11T03:19:43.965Z,1.60
2019-04-11T03:20:37.117Z,1.58
2019-04-11T03:21:33.185Z,1.58
2019-04-11T03:22:30.122Z,1.55
2019-04-11T03:23:29.109Z,1.55
2019-04-11T03:24:31.055Z,1.53
2019-04-11T03:25:30.666Z,1.45
2019-04-11T03:26:29.277Z,1.49
2019-04-11T03:27:30.480Z,1.49
2019-04-11T03:28:31.334Z,1.49
2019-04-11T03:29:30.894Z,1.52
2019-04-11T03:30:48.916Z,1.45
2019-04-11T03:32:13.320Z,1.41
2019-04-11T03:33:28.972Z,1.44
2019-04-11T03:37:13.879Z,1.20
2019-04-11T03:37:53.669Z,1.28
2019-04-11T03:38:55.241Z,1.40
2019-04-11T03:39:50.687Z,1.37
2019-04-11T03:40:46.647Z,1.26
2019-04-11T03:41:50.387Z,1.26
2019-04-11T03:42:42.972Z,1.34
2019-04-11T03:43:39.552Z,1.20
2019-04-11T03:44:37.185Z,1.30
2019-04-11T03:45:47.958Z,1.24
2019-04-11T03:46:48.309Z,1.26
2019-04-11T03:47:40.892Z,1.34
2019-04-11T03:48:42.163Z,1.24
2019-04-11T03:49:39.918Z,1.14
2019-04-11T03:50:32.218Z,1.19
2019-04-11T03:51:29.703Z,1.17
2019-04-11T03:52:30.431Z,1.17
2019-04-11T03:53:29.913Z,1.14
2019-04-11T03:54:29.457Z,1.10
2019-04-11T03:55:30.736Z,1.12
2019-04-11T03:56:28.776Z,1.10
2019-04-11T03:57:29.881Z,1.02
2019-04-11T03:58:29.450Z,1.01
2019-04-11T03:59:29.038Z,1.02
2019-04-11T04:00:35.448Z,0.92
2019-04-11T04:01:29.777Z,0.98
2019-04-11T04:02:28.691Z,0.96
2019-04-11T04:03:29.665Z,0.91
2019-04-11T04:04:29.144Z,0.88
2019-04-11T04:05:32.367Z,0.84
2019-04-11T04:06:31.007Z,0.87
2019-04-11T04:07:29.671Z,0.88
2019-04-11T04:08:29.748Z,0.84
2019-04-11T04:09:29.518Z,0.84
2019-04-11T04:10:29.615Z,0.78
2019-04-11T04:11:31.615Z,0.74
2019-04-11T04:12:29.353Z,0.81
2019-04-11T04:13:31.674Z,0.83
2019-04-11T04:14:29.056Z,0.78
2019-04-11T04:15:40.106Z,0.70
2019-04-11T04:16:35.975Z,0.74
2019-04-11T04:17:30.791Z,0.74
2019-04-11T04:18:29.901Z,0.69
2019-04-11T04:19:30.380Z,0.70
2019-04-11T04:20:28.984Z,0.68
2019-04-11T04:21:28.904Z,0.68
2019-04-11T04:22:29.440Z,0.68
2019-04-11T04:23:29.518Z,0.78
2019-04-11T04:24:32.143Z,0.74
2019-04-11T04:25:29.446Z,0.76
2019-04-11T04:26:29.197Z,0.65
2019-04-11T04:27:30.333Z,0.70
2019-04-11T04:28:29.433Z,0.58
2019-04-11T04:29:29.344Z,0.78
2019-04-11T04:30:29.788Z,0.70
2019-04-11T04:31:28.685Z,0.73
2019-04-11T04:32:30.254Z,0.77
2019-04-11T04:33:29.466Z,0.74
2019-04-11T04:34:28.604Z,0.73
2019-04-11T04:35:28.603Z,0.83
2019-04-11T04:36:29.424Z,1.08
2019-04-11T04:37:29.572Z,1.05
2019-04-11T04:38:29.547Z,1.02
2019-04-11T04:39:29.827Z,0.91
2019-04-11T04:40:42.214Z,0.87
2019-04-11T04:41:37.746Z,0.84
2019-04-11T04:42:35.977Z,0.80
2019-04-11T04:43:30.102Z,0.87
2019-04-11T04:44:29.719Z,0.83
2019-04-11T04:45:30.040Z,0.87
2019-04-11T04:46:45.233Z,0.80
2019-04-11T04:47:37.325Z,0.84
2019-04-11T04:48:30.147Z,0.86
2019-04-11T04:49:29.955Z,0.88
2019-04-11T04:50:28.679Z,0.99
2019-04-11T04:51:28.932Z,1.04
2019-04-11T04:52:29.677Z,1.14
2019-04-11T04:53:28.476Z,1.34
2019-04-11T04:54:28.473Z,1.66
2019-04-11T04:55:30.160Z,1.92
2019-04-11T04:56:31.643Z,2.15
2019-04-11T04:57:29.720Z,2.42
2019-04-11T04:58:29.326Z,2.64
2019-04-11T04:59:28.630Z,2.83
2019-04-11T05:00:29.651Z,3.10
2019-04-11T05:01:29.117Z,3.18
2019-04-11T05:02:28.704Z,3.00
2019-04-11T05:03:29.652Z,2.97
2019-04-11T05:04:29.633Z,3.10
2019-04-11T05:05:29.230Z,3.31
2019-04-11T05:06:28.230Z,3.60
2019-04-11T05:07:32.208Z,3.50
2019-04-11T05:08:30.453Z,3.50
2019-04-11T05:09:28.004Z,3.50
2019-04-11T05:10:28.490Z,3.59
2019-04-11T05:11:28.403Z,3.47
2019-04-11T05:12:28.207Z,3.32
2019-04-11T05:13:28.145Z,3.41
2019-04-11T05:14:29.427Z,3.41
2019-04-11T05:15:28.279Z,3.62
2019-04-11T05:16:27.908Z,3.50
2019-04-11T05:17:28.938Z,3.36
2019-04-11T05:18:27.960Z,3.40
2019-04-11T05:19:28.571Z,3.66
2019-04-11T05:20:28.166Z,3.68
2019-04-11T05:21:27.841Z,3.76
2019-04-11T05:22:27.833Z,3.84
2019-04-11T05:23:27.835Z,3.74
2019-04-11T05:24:28.309Z,3.58
2019-04-11T05:25:28.628Z,3.69
2019-04-11T05:26:27.925Z,3.76
2019-04-11T05:27:27.795Z,4.05
2019-04-11T05:28:27.777Z,4.35
2019-04-11T05:29:27.759Z,4.62
2019-04-11T05:30:27.743Z,4.49
2019-04-11T05:31:27.729Z,4.32
2019-04-11T05:32:27.729Z,4.40
2019-04-11T05:33:27.723Z,4.66
2019-04-11T05:34:28.044Z,4.49
2019-04-11T05:35:27.695Z,4.55
2019-04-11T05:36:28.295Z,4.56
2019-04-11T05:37:27.688Z,4.60
2019-04-11T05:38:27.692Z,4.92
2019-04-11T05:39:27.695Z,5.28
2019-04-11T05:40:28.130Z,4.87
2019-04-11T05:41:27.625Z,4.63
2019-04-11T05:42:27.613Z,4.62
2019-04-11T05:43:31.408Z,4.60
2019-04-11T05:44:28.597Z,4.96
2019-04-11T05:45:27.591Z,4.90
2019-04-11T05:46:35.288Z,5.07
2019-04-11T05:47:29.614Z,5.29
2019-04-11T05:48:28.652Z,5.46
2019-04-11T05:49:29.075Z,5.84
2019-04-11T05:50:28.568Z,5.90
2019-04-11T05:51:38.910Z,5.83
2019-04-11T05:52:31.075Z,5.64
2019-04-11T05:53:27.950Z,4.93
2019-04-11T05:54:28.092Z,4.75
2019-04-11T05:55:28.012Z,4.93
2019-04-11T05:56:27.847Z,5.25
2019-04-11T05:57:34.091Z,5.62
2019-04-11T05:58:28.459Z,5.83
2019-04-11T05:59:27.429Z,5.39
2019-04-11T06:00:28.423Z,5.47
2019-04-11T06:01:27.993Z,5.38
2019-04-11T06:02:27.399Z,5.32
2019-04-11T06:03:28.311Z,5.32
2019-04-11T06:04:29.926Z,5.26
2019-04-11T06:05:31.816Z,5.04
2019-04-11T06:06:31.905Z,4.70
2019-04-11T06:07:29.302Z,4.96
2019-04-11T06:08:30.009Z,4.96
2019-04-11T06:09:30.256Z,5.11
2019-04-11T06:10:28.361Z,4.87
2019-04-11T06:11:28.447Z,5.14
2019-04-11T06:12:27.541Z,5.14
2019-04-11T06:13:27.280Z,5.50
2019-04-11T06:14:27.261Z,6.09
2019-04-11T06:15:27.256Z,6.46
2019-04-11T06:16:36.951Z,6.64
2019-04-11T06:17:28.233Z,6.35
2019-04-11T06:18:33.117Z,6.28
2019-04-11T06:19:28.317Z,6.27
2019-04-11T06:20:27.239Z,6.36
2019-04-11T06:21:28.283Z,6.27
2019-04-11T06:22:27.176Z,6.28
2019-04-11T06:23:27.565Z,6.57
2019-04-11T06:24:27.996Z,6.12
2019-04-11T06:25:28.261Z,6.11
2019-04-11T06:26:27.150Z,6.14
2019-04-11T06:27:28.338Z,5.97
2019-04-11T06:28:27.749Z,6.22
2019-04-11T06:29:28.395Z,6.28
2019-04-11T06:30:28.292Z,6.27
2019-04-11T06:31:27.089Z,6.12
2019-04-11T06:32:27.873Z,5.91
2019-04-11T06:33:27.057Z,6.11
2019-04-11T06:34:27.111Z,6.48
2019-04-11T06:35:28.205Z,6.59
2019-04-11T06:36:28.113Z,6.28
2019-04-11T06:37:27.735Z,6.31
2019-04-11T06:38:26.999Z,6.28
2019-04-11T06:39:27.419Z,6.56
2019-04-11T06:40:27.766Z,6.45
2019-04-11T06:41:26.989Z,6.33
2019-04-11T06:42:28.610Z,6.36
2019-04-11T06:43:27.842Z,6.78
2019-04-11T06:44:28.013Z,7.05
2019-04-11T06:45:27.246Z,7.10
2019-04-11T06:46:27.185Z,7.25
2019-04-11T06:47:27.200Z,7.54
2019-04-11T06:48:26.914Z,7.42
2019-04-11T06:49:26.878Z,7.06
2019-04-11T06:50:27.125Z,6.64
2019-04-11T06:51:28.074Z,6.88
2019-04-11T06:52:26.844Z,6.92
2019-04-11T06:53:27.984Z,7.21
2019-04-11T06:54:26.880Z,7.38
2019-04-11T06:55:26.837Z,7.40
2019-04-11T06:56:27.306Z,7.10
2019-04-11T06:57:26.792Z,6.99
2019-04-11T06:58:27.654Z,6.95
2019-04-11T06:59:26.776Z,6.79
2019-04-11T07:00:27.302Z,6.96
2019-04-11T07:01:27.867Z,7.17
2019-04-11T07:02:27.832Z,7.54
2019-04-11T07:03:29.249Z,7.67
2019-04-11T07:04:27.368Z,7.39
2019-04-11T07:05:26.832Z,6.95
2019-04-11T07:06:27.301Z,6.88
2019-04-11T07:07:28.784Z,6.44
2019-04-11T07:08:26.672Z,6.04
2019-04-11T07:09:26.660Z,6.04
2019-04-11T07:10:26.728Z,6.39
2019-04-11T07:11:27.614Z,6.19
2019-04-11T07:12:26.646Z,6.01
2019-04-11T07:13:26.628Z,5.90
2019-04-11T07:14:26.999Z,6.05
2019-04-11T07:15:27.229Z,6.41
2019-04-11T07:16:27.611Z,6.82
2019-04-11T07:17:27.532Z,7.18
2019-04-11T07:18:26.926Z,7.11
2019-04-11T07:19:26.576Z,6.85
2019-04-11T07:20:27.251Z,6.99
2019-04-11T07:21:27.589Z,7.25
2019-04-11T07:22:26.522Z,7.57
2019-04-11T07:23:26.569Z,7.51
2019-04-11T07:24:26.497Z,7.23
2019-04-11T07:25:26.901Z,7.48
2019-04-11T07:26:27.363Z,6.95
2019-04-11T07:27:26.465Z,7.31
2019-04-11T07:28:27.359Z,7.53
2019-04-11T07:29:26.442Z,7.45
2019-04-11T07:30:26.443Z,7.39
2019-04-11T07:31:27.661Z,7.25
2019-04-11T07:32:27.704Z,7.72
2019-04-11T07:33:26.707Z,7.93
2019-04-11T07:34:27.320Z,7.79
2019-04-11T07:35:27.681Z,7.66
2019-04-11T07:36:27.395Z,7.58
2019-04-11T07:37:26.354Z,7.70
2019-04-11T07:38:27.261Z,7.32
2019-04-11T07:39:26.556Z,7.23
2019-04-11T07:40:27.090Z,7.11
2019-04-11T07:41:26.310Z,7.02
2019-04-11T07:42:26.569Z,7.10
2019-04-11T07:43:26.892Z,7.14
2019-04-11T07:44:28.703Z,6.96
2019-04-11T07:45:26.416Z,7.39
2019-04-11T07:46:27.368Z,7.93
2019-04-11T07:47:27.645Z,7.70
2019-04-11T07:48:27.243Z,7.69
2019-04-11T07:49:26.516Z,7.73
2019-04-11T07:50:27.424Z,7.79
2019-04-11T07:51:27.472Z,7.85
2019-04-11T07:52:27.580Z,7.85
2019-04-11T07:53:26.317Z,8.06
2019-04-11T07:54:26.169Z,8.00
2019-04-11T07:55:26.161Z,7.15
2019-04-11T07:56:27.320Z,6.79
2019-04-11T07:57:26.382Z,6.88
2019-04-11T07:58:26.362Z,6.46
2019-04-11T07:59:27.164Z,6.62
2019-04-11T08:00:36.648Z,6.89
2019-04-11T08:01:27.155Z,6.89
2019-04-11T08:02:26.828Z,7.13
2019-04-11T08:03:26.069Z,7.50
2019-04-11T08:04:26.090Z,7.67
2019-04-11T08:05:26.058Z,7.40
2019-04-11T08:06:26.508Z,6.96
2019-04-11T08:07:26.033Z,7.50
2019-04-11T08:08:26.016Z,7.94
2019-04-11T08:09:26.773Z,7.79
2019-04-11T08:10:27.166Z,7.88
2019-04-11T08:11:25.997Z,8.06
2019-04-11T08:12:27.600Z,7.94
2019-04-11T08:13:26.245Z,7.97
2019-04-11T08:14:26.592Z,8.15
2019-04-11T08:15:25.937Z,7.95
2019-04-11T08:16:26.739Z,8.19
2019-04-11T08:17:35.721Z,8.63
2019-04-11T08:18:26.902Z,8.53
2019-04-11T08:19:26.844Z,7.87
2019-04-11T08:20:25.886Z,7.98
2019-04-11T08:21:26.173Z,8.15
2019-04-11T08:22:25.871Z,8.15
2019-04-11T08:23:25.856Z,7.50
2019-04-11T08:24:28.386Z,7.57
2019-04-11T08:25:26.000Z,8.64
2019-04-11T08:26:26.260Z,8.87
2019-04-11T08:27:25.811Z,9.46
2019-04-11T08:28:26.937Z,9.69
2019-04-11T08:29:27.069Z,9.47
2019-04-11T08:30:26.590Z,8.48
2019-04-11T08:31:26.473Z,7.72
2019-04-11T08:32:25.761Z,7.47
2019-04-11T08:33:26.744Z,7.93
2019-04-11T08:34:26.991Z,8.37
2019-04-11T08:35:26.265Z,9.11
2019-04-11T08:36:26.092Z,9.43
2019-04-11T08:37:25.722Z,8.52
2019-04-11T08:38:26.699Z,7.43
2019-04-11T08:39:25.793Z,6.95
2019-04-11T08:40:25.998Z,7.07
2019-04-11T08:41:25.660Z,7.06
2019-04-11T08:42:25.689Z,7.32
2019-04-11T08:43:26.813Z,7.36
2019-04-11T08:44:25.967Z,7.33
2019-04-11T08:45:25.833Z,6.99
2019-04-11T08:46:26.718Z,6.51
2019-04-11T08:47:39.354Z,6.38
2019-04-11T08:48:26.685Z,6.08
2019-04-11T08:49:26.645Z,6.09
2019-04-11T08:50:26.184Z,6.19
2019-04-11T08:51:25.555Z,6.22
2019-04-11T08:52:25.540Z,6.27
2019-04-11T08:53:26.766Z,6.30
2019-04-11T08:54:25.822Z,6.45
2019-04-11T08:55:25.514Z,6.19
2019-04-11T08:56:25.504Z,6.36
2019-04-11T08:57:25.497Z,6.52
2019-04-11T08:58:26.643Z,6.48
2019-04-11T08:59:25.476Z,6.04
2019-04-11T09:00:26.268Z,6.04
2019-04-11T09:01:25.448Z,6.46
2019-04-11T09:02:25.426Z,7.06
2019-04-11T09:03:25.994Z,7.35
2019-04-11T09:04:26.014Z,7.63
2019-04-11T09:05:25.404Z,7.50
2019-04-11T09:06:25.388Z,7.53
2019-04-11T09:07:25.481Z,7.40
2019-04-11T09:08:26.722Z,7.79
2019-04-11T09:09:25.389Z,8.37
2019-04-11T09:10:26.172Z,9.02
2019-04-11T09:11:25.623Z,9.06
2019-04-11T09:12:26.706Z,9.04
2019-04-11T09:13:25.316Z,8.84
2019-04-11T09:14:26.388Z,8.84
2019-04-11T09:15:25.292Z,9.26
2019-04-11T09:16:25.780Z,9.31
2019-04-11T09:17:26.167Z,9.34
2019-04-11T09:18:25.992Z,8.99
2019-04-11T09:19:25.249Z,8.78
2019-04-11T09:20:25.410Z,8.27
2019-04-11T09:21:26.468Z,7.70
2019-04-11T09:22:25.214Z,7.39
2019-04-11T09:23:25.894Z,7.07
2019-04-11T09:24:26.313Z,7.35
2019-04-11T09:25:25.327Z,6.93
2019-04-11T09:26:25.670Z,6.60
2019-04-11T09:27:25.152Z,6.75
2019-04-11T09:28:25.139Z,6.97
2019-04-11T09:29:26.135Z,7.32
2019-04-11T09:30:25.131Z,7.32
2019-04-11T09:31:25.510Z,7.39
2019-04-11T09:32:25.594Z,7.32
2019-04-11T09:33:25.086Z,7.20
2019-04-11T09:34:25.925Z,7.06
2019-04-11T09:35:25.070Z,6.96
2019-04-11T09:36:26.048Z,6.93
2019-04-11T09:37:25.382Z,6.60
2019-04-11T09:38:25.039Z,6.57
2019-04-11T09:39:25.013Z,6.64
2019-04-11T09:40:26.404Z,6.96
2019-04-11T09:41:25.010Z,7.51
2019-04-11T09:42:26.121Z,8.20
2019-04-11T09:43:26.186Z,8.18
2019-04-11T09:44:24.969Z,7.82
2019-04-11T09:45:25.735Z,7.38
2019-04-11T09:46:26.122Z,7.31
2019-04-11T09:47:24.957Z,7.15
2019-04-11T09:48:26.229Z,7.36
2019-04-11T09:49:24.912Z,7.02
2019-04-11T09:50:24.898Z,6.97
2019-04-11T09:51:27.351Z,6.95
2019-04-11T09:52:24.893Z,6.87
2019-04-11T09:53:26.085Z,6.87
2019-04-11T09:54:26.099Z,6.82
2019-04-11T09:55:25.503Z,6.67
2019-04-11T09:56:24.951Z,6.74
2019-04-11T09:57:24.986Z,6.95
2019-04-11T09:58:25.318Z,7.00
2019-04-11T09:59:25.072Z,6.92
2019-04-11T10:00:24.783Z,7.13
2019-04-11T10:01:24.780Z,7.35
2019-04-11T10:02:25.356Z,7.57
2019-04-11T10:03:25.603Z,7.87
2019-04-11T10:04:25.637Z,7.58
2019-04-11T10:05:24.760Z,7.51
2019-04-11T10:06:24.785Z,7.67
2019-04-11T10:07:25.779Z,7.88
2019-04-11T10:08:24.705Z,7.58
2019-04-11T10:09:26.012Z,7.17
2019-04-11T10:10:24.709Z,6.77
2019-04-11T10:11:24.702Z,6.57
2019-04-11T10:12:24.677Z,6.56
2019-04-11T10:13:25.010Z,6.42
2019-04-11T10:14:25.767Z,6.49
2019-04-11T10:15:24.622Z,6.54
2019-04-11T10:16:24.634Z,6.52
2019-04-11T10:17:26.389Z,6.63
2019-04-11T10:18:30.028Z,6.78
2019-04-11T10:19:25.586Z,6.67
2019-04-11T10:20:24.622Z,6.66
2019-04-11T10:21:25.855Z,6.57
2019-04-11T10:22:24.799Z,6.81
2019-04-11T10:23:25.041Z,7.07
2019-04-11T10:24:24.530Z,7.17
2019-04-11T10:25:25.383Z,7.06
2019-04-11T10:26:25.679Z,6.85
2019-04-11T10:27:24.715Z,6.95
2019-04-11T10:28:25.080Z,6.89
2019-04-11T10:29:25.736Z,7.29
2019-04-11T10:30:25.748Z,6.85
2019-04-11T10:31:24.461Z,6.87
2019-04-11T10:32:25.373Z,6.72
2019-04-11T10:33:24.756Z,6.64
2019-04-11T10:34:24.414Z,6.62
2019-04-11T10:35:24.412Z,6.72
2019-04-11T10:36:25.345Z,6.62
2019-04-11T10:37:25.457Z,6.60
2019-04-11T10:38:24.585Z,6.69
2019-04-11T10:39:25.014Z,6.81
2019-04-11T10:40:24.340Z,6.99
2019-04-11T10:41:25.204Z,7.06
2019-04-11T10:42:24.384Z,7.51
2019-04-11T10:43:24.607Z,7.77
2019-04-11T10:44:25.609Z,7.97
2019-04-11T10:45:24.913Z,7.91
2019-04-11T10:46:25.168Z,8.06
2019-04-11T10:47:25.016Z,7.77
2019-04-11T10:48:34.592Z,7.23
2019-04-11T10:49:26.308Z,7.11
2019-04-11T10:50:24.245Z,7.33
2019-04-11T10:51:24.644Z,7.45
2019-04-11T10:52:24.632Z,7.50
2019-04-11T10:53:24.954Z,7.42
2019-04-11T10:54:24.208Z,7.17
2019-04-11T10:55:25.299Z,7.21
2019-04-11T10:56:24.521Z,6.99
2019-04-11T10:57:24.397Z,6.85
2019-04-11T10:58:24.723Z,6.63
2019-04-11T10:59:26.531Z,6.67
2019-04-11T11:00:24.139Z,6.85
2019-04-11T11:01:25.134Z,6.67
2019-04-11T11:02:25.145Z,6.88
2019-04-11T11:03:24.397Z,7.11
2019-04-11T11:04:24.086Z,7.11
2019-04-11T11:05:24.319Z,6.82
2019-04-11T11:06:24.066Z,6.77
2019-04-11T11:07:24.637Z,6.78
2019-04-11T11:08:24.043Z,6.92
2019-04-11T11:09:24.047Z,6.96
2019-04-11T11:10:24.025Z,6.92
2019-04-11T11:11:24.166Z,6.74
2019-04-11T11:12:25.250Z,6.87
2019-04-11T11:13:24.003Z,6.93
2019-04-11T11:14:24.865Z,7.02
2019-04-11T11:15:25.222Z,6.99
2019-04-11T11:16:24.782Z,7.11
2019-04-11T11:17:47.101Z,7.21
2019-04-11T11:18:43.989Z,7.45
2019-04-11T11:19:43.637Z,7.29
2019-04-11T11:20:32.828Z,7.24
2019-04-11T11:21:27.570Z,7.05
2019-04-11T11:22:25.266Z,6.85
2019-04-11T11:23:24.670Z,6.93
2019-04-11T11:24:23.989Z,6.77
2019-04-11T11:25:24.653Z,6.95
2019-04-11T11:26:25.666Z,7.03
2019-04-11T11:27:24.415Z,6.93
2019-04-11T11:28:23.858Z,6.93
2019-04-11T11:29:24.302Z,7.07
2019-04-11T11:30:25.017Z,6.88
2019-04-11T11:31:24.420Z,6.85
2019-04-11T11:32:23.781Z,6.99
2019-04-11T11:33:25.144Z,7.10
2019-04-11T11:34:24.855Z,7.39
2019-04-11T11:35:27.671Z,7.13
2019-04-11T11:36:25.732Z,6.97
2019-04-11T11:37:24.846Z,7.05
2019-04-11T11:38:24.143Z,7.21
2019-04-11T11:39:24.735Z,7.10
2019-04-11T11:40:23.851Z,7.21
2019-04-11T11:41:24.756Z,7.17
2019-04-11T11:42:23.669Z,7.29
2019-04-11T11:43:23.666Z,7.54
2019-04-11T11:44:24.546Z,7.82
2019-04-11T11:45:23.701Z,8.00
2019-04-11T11:46:26.702Z,8.03
2019-04-11T11:47:25.845Z,7.80
2019-04-11T11:48:24.808Z,7.48
2019-04-11T11:49:41.771Z,7.06
2019-04-11T11:50:24.791Z,7.20
2019-04-11T11:51:26.944Z,7.20
2019-04-11T11:52:24.822Z,7.31
2019-04-11T11:53:25.855Z,7.07
2019-04-11T11:54:24.007Z,6.85
2019-04-11T11:55:23.527Z,6.52
2019-04-11T11:56:24.137Z,6.52
2019-04-11T11:57:23.582Z,6.60
2019-04-11T11:58:23.712Z,6.64
2019-04-11T11:59:23.502Z,6.64
2019-04-11T12:00:23.667Z,6.46
2019-04-11T12:01:24.072Z,6.56
2019-04-11T12:02:23.454Z,6.49
2019-04-11T12:03:26.512Z,6.51
2019-04-11T12:04:26.048Z,6.52
2019-04-11T12:05:26.082Z,6.60
2019-04-11T12:06:23.866Z,6.88
2019-04-11T12:07:23.392Z,6.78
2019-04-11T12:08:24.545Z,6.77
2019-04-11T12:09:24.524Z,6.74
2019-04-11T12:10:23.950Z,6.78
2019-04-11T12:11:24.089Z,6.59
2019-04-11T12:12:23.919Z,6.67
2019-04-11T12:13:23.329Z,6.62
2019-04-11T12:14:24.271Z,6.46
2019-04-11T12:15:25.701Z,6.22
2019-04-11T12:16:23.783Z,6.26
2019-04-11T12:17:23.297Z,6.12
2019-04-11T12:18:24.530Z,6.20
2019-04-11T12:19:23.344Z,6.35
2019-04-11T12:20:23.254Z,6.45
2019-04-11T12:21:26.387Z,6.59
2019-04-11T12:22:24.235Z,6.57
2019-04-11T12:23:24.204Z,6.45
2019-04-11T12:24:23.211Z,6.45
2019-04-11T12:25:23.199Z,6.62
2019-04-11T12:26:23.202Z,6.42
2019-04-11T12:27:23.175Z,6.48
2019-04-11T12:28:23.488Z,6.31
2019-04-11T12:29:24.084Z,6.30
2019-04-11T12:30:26.597Z,6.48
2019-04-11T12:31:24.185Z,6.24
2019-04-11T12:32:24.175Z,6.07
2019-04-11T12:33:23.517Z,6.04
2019-04-11T12:34:24.065Z,6.24
2019-04-11T12:35:24.700Z,6.33
2019-04-11T12:36:23.099Z,6.28
2019-04-11T12:37:23.185Z,6.36
2019-04-11T12:38:24.667Z,6.14
2019-04-11T12:39:24.842Z,6.16
2019-04-11T12:40:23.035Z,6.19
2019-04-11T12:41:23.060Z,6.33
2019-04-11T12:42:23.022Z,6.28
2019-04-11T12:43:23.012Z,6.36
2019-04-11T12:44:22.992Z,6.24
2019-04-11T12:45:22.977Z,6.09
2019-04-11T12:46:29.754Z,6.26
2019-04-11T12:47:23.964Z,6.31
2019-04-11T12:48:22.959Z,6.57
2019-04-11T12:49:22.940Z,6.64
2019-04-11T12:50:22.927Z,6.62
2019-04-11T12:51:22.916Z,6.56
2019-04-11T12:52:22.915Z,6.49
2019-04-11T12:53:23.023Z,6.49
2019-04-11T12:54:22.880Z,6.41
2019-04-11T12:55:22.877Z,6.24
2019-04-11T12:56:22.862Z,6.17
2019-04-11T12:57:22.852Z,6.28
2019-04-11T12:58:22.834Z,6.48
2019-04-11T12:59:22.834Z,6.33
2019-04-11T13:00:22.819Z,6.24
2019-04-11T13:01:22.812Z,6.22
2019-04-11T13:02:22.798Z,6.36
2019-04-11T13:03:22.830Z,6.35
2019-04-11T13:04:22.772Z,6.41
2019-04-11T13:05:22.778Z,6.44
2019-04-11T13:06:22.744Z,6.42
2019-04-11T13:07:22.735Z,6.31
2019-04-11T13:08:22.729Z,6.22
2019-04-11T13:09:22.757Z,6.07
2019-04-11T13:10:24.101Z,6.20
2019-04-11T13:11:22.696Z,6.38
2019-04-11T13:12:22.693Z,6.33
2019-04-11T13:13:22.673Z,6.33
2019-04-11T13:14:22.664Z,6.17
2019-04-11T13:15:22.679Z,6.17
2019-04-11T13:16:22.637Z,6.09
2019-04-11T13:17:22.625Z,6.14
2019-04-11T13:18:22.618Z,6.26
2019-04-11T13:19:22.609Z,6.31
2019-04-11T13:20:22.608Z,6.20
2019-04-11T13:21:22.595Z,6.08